Time;durP1;ratioP1;P1;durP2;ratioP2;P2;SDS_P1;SDS_P2;PMS_P1;PMS_P2;Temp;Humidity;BMP_temperature;BMP_pressure;BME280_temperature;BME280_humidity;BME280_pressure;Samples;Min_cycle;Max_cycle;Signal;HPM_P1;HPM_P2
2023/04/10 00:00:20;;;;;;;;;12.33;11.33;;;;;13.17;90.39;101495.19;5081408;27;45375;-75
2023/04/10 00:02:47;;;;;;;;;11.00;11.00;;;;;13.13;90.33;101489.38;5081543;27;45369;-76
2023/04/10 00:05:12;;;;;;;;;12.67;12.00;;;;;13.20;90.00;101496.69;5081390;28;45321;-76
2023/04/10 00:07:37;;;;;;;;;13.00;13.00;;;;;13.18;89.84;101496.03;5081200;27;45199;-75
2023/04/10 00:10:03;;;;;;;;;11.33;10.33;;;;;13.15;89.91;101486.53;5080745;28;55283;-75
2023/04/10 00:12:28;;;;;;;;;11.67;11.67;;;;;13.15;89.90;101486.53;5080132;28;45486;-75
2023/04/10 00:14:54;;;;;;;;;11.67;11.67;;;;;13.28;89.49;101485.13;5081064;27;45372;-75
2023/04/10 00:17:19;;;;;;;;;10.33;10.00;;;;;13.30;88.88;101485.78;5081193;27;45913;-75
2023/04/10 00:19:45;;;;;;;;;11.00;11.00;;;;;13.30;89.14;101475.97;5081067;27;45248;-76
2023/04/10 00:22:10;;;;;;;;;10.67;10.67;;;;;13.29;89.38;101482.28;5079278;28;55185;-75
2023/04/10 00:24:36;;;;;;;;;12.33;11.67;;;;;13.33;89.31;101482.78;5081163;27;45448;-75
2023/04/10 00:27:01;;;;;;;;;11.33;11.33;;;;;13.31;89.28;101472.28;5080974;27;46393;-75
2023/04/10 00:29:26;;;;;;;;;13.00;11.67;;;;;13.32;89.21;101473.94;5080473;27;45278;-75
2023/04/10 00:31:52;;;;;;;;;14.33;12.33;;;;;13.30;89.27;101467.09;5081096;28;45205;-75
2023/04/10 00:34:17;;;;;;;;;12.67;11.67;;;;;13.25;89.32;101465.81;5080697;28;51442;-76
2023/04/10 00:36:44;;;;;;;;;10.67;10.00;;;;;13.29;89.44;101468.94;5061742;28;53561;-75
2023/04/10 00:39:10;;;;;;;;;13.33;13.00;;;;;13.20;89.38;101451.31;5080136;28;45387;-76
2023/04/10 00:41:35;;;;;;;;;12.00;12.00;;;;;13.24;89.25;101461.47;5080507;28;45519;-75
2023/04/10 00:44:00;;;;;;;;;12.33;11.67;;;;;13.26;89.80;101458.63;5080540;28;45323;-75
2023/04/10 00:46:27;;;;;;;;;12.67;11.67;;;;;13.24;89.95;101455.28;5062261;28;48270;-76
2023/04/10 00:48:53;;;;;;;;;8.67;8.67;;;;;13.26;89.68;101448.78;5080753;28;45347;-76
2023/04/10 00:51:19;;;;;;;;;12.00;12.00;;;;;13.26;89.59;101453.28;5080808;28;45303;-76
2023/04/10 00:53:47;;;;;;;;;10.00;10.00;;;;;13.26;89.82;101445.28;5080485;28;45434;-76
2023/04/10 00:56:13;;;;;;;;;10.00;10.00;;;;;13.22;89.79;101447.47;5080494;28;45247;-75
2023/04/10 00:58:38;;;;;;;;;13.00;12.33;;;;;13.23;90.49;101445.63;5061945;28;45282;-75
2023/04/10 01:01:04;;;;;;;;;11.67;11.67;;;;;13.16;90.70;101436.63;5062180;28;45304;-75
2023/04/10 01:03:29;;;;;;;;;10.67;10.67;;;;;13.21;90.47;101426.28;5080176;28;45522;-75
2023/04/10 01:06:19;;;;;;;;;11.00;10.33;;;;;13.26;91.11;101434.63;5079846;28;54534;-75
2023/04/10 01:09:05;;;;;;;;;11.67;11.33;;;;;13.26;91.11;101432.75;5079910;28;45278;-75
2023/04/10 01:12:07;;;;;;;;;11.67;11.00;;;;;13.25;91.35;101417.75;5080369;28;45225;-75
2023/04/10 01:14:48;;;;;;;;;12.00;11.00;;;;;13.26;90.56;101416.72;5042668;28;46252;-74
2023/04/10 01:17:21;;;;;;;;;12.00;12.00;;;;;13.27;90.92;101420.25;5080178;28;45401;-75
2023/04/10 01:20:05;;;;;;;;;12.00;11.67;;;;;13.24;90.63;101421.44;5078548;28;45254;-75
2023/04/10 01:22:49;;;;;;;;;11.33;11.33;;;;;13.19;90.16;101417.59;5061613;28;45402;-75
2023/04/10 01:25:38;;;;;;;;;14.00;14.00;;;;;13.22;91.14;101423.44;5080091;28;45264;-75
2023/04/10 01:28:12;;;;;;;;;11.00;11.00;;;;;13.19;90.87;101414.94;5061496;28;47357;-75
2023/04/10 01:30:38;;;;;;;;;15.00;14.67;;;;;13.24;91.11;101415.25;5079765;28;45396;-75
2023/04/10 01:33:10;;;;;;;;;10.33;10.33;;;;;13.19;91.13;101410.44;5078524;28;45392;-74
2023/04/10 01:35:37;;;;;;;;;11.67;11.00;;;;;13.18;91.36;101397.28;5079858;27;45512;-74
2023/04/10 01:38:05;;;;;;;;;11.67;11.67;;;;;13.21;91.73;101399.59;5079933;27;45332;-77
2023/04/10 01:40:34;;;;;;;;;13.67;13.00;;;;;13.24;91.88;101394.75;5079860;27;45385;-74
2023/04/10 01:43:05;;;;;;;;;10.67;10.67;;;;;13.21;91.03;101392.44;5078604;28;45273;-77
2023/04/10 01:45:30;;;;;;;;;12.67;12.67;;;;;13.22;91.54;101398.56;5078398;28;46400;-77
2023/04/10 01:47:56;;;;;;;;;13.00;13.00;;;;;13.20;91.45;101389.94;5079823;28;45378;-77
2023/04/10 01:50:23;;;;;;;;;12.00;10.00;;;;;13.18;92.15;101390.09;5085984;27;45325;-77
2023/04/10 01:52:51;;;;;;;;;10.67;10.00;;;;;13.19;91.71;101391.75;5086672;27;45340;-77
2023/04/10 01:55:19;;;;;;;;;14.67;12.67;;;;;13.21;91.73;101397.75;5086447;27;45409;-77
2023/04/10 01:57:47;;;;;;;;;9.33;9.33;;;;;13.19;91.63;101397.09;5085045;28;47995;-77
2023/04/10 02:00:13;;;;;;;;;15.33;13.00;;;;;13.13;91.57;101379.09;5086134;27;45314;-77
2023/04/10 02:02:39;;;;;;;;;12.00;11.33;;;;;13.18;91.80;101391.94;5085071;28;45217;-77
2023/04/10 02:05:05;;;;;;;;;11.00;11.00;;;;;13.20;91.63;101398.75;5086412;27;45230;-77
2023/04/10 02:07:56;;;;;;;;;12.00;11.00;;;;;13.19;92.05;101401.59;5084846;28;46992;-77
2023/04/10 02:10:50;;;;;;;;;12.00;12.00;;;;;13.16;92.28;101402.78;5084904;28;45985;-76
2023/04/10 02:13:20;;;;;;;;;12.33;12.00;;;;;13.16;92.30;101399.28;5084784;28;45331;-77
2023/04/10 02:15:49;;;;;;;;;13.67;13.67;;;;;13.10;92.37;101396.31;5086199;28;45466;-77
2023/04/10 02:18:15;;;;;;;;;11.00;10.67;;;;;13.13;91.84;101390.63;5086195;27;45352;-77
2023/04/10 02:20:41;;;;;;;;;12.00;12.00;;;;;13.12;92.15;101382.78;5086109;27;45374;-77
2023/04/10 02:23:06;;;;;;;;;13.67;13.67;;;;;13.18;91.48;101400.78;5086437;27;45288;-77
2023/04/10 02:25:32;;;;;;;;;10.67;10.33;;;;;13.09;92.34;101389.31;5086203;28;45381;-77
2023/04/10 02:28:02;;;;;;;;;11.33;10.33;;;;;13.10;92.33;101385.63;5086338;27;45264;-77
2023/04/10 02:30:28;;;;;;;;;13.00;12.33;;;;;13.10;92.67;101387.47;5069278;28;45827;-78
2023/04/10 02:32:54;;;;;;;;;11.00;11.00;;;;;13.17;92.33;101377.75;5086411;28;45327;-77
2023/04/10 02:35:19;;;;;;;;;12.00;12.00;;;;;12.96;92.42;101357.84;5085895;28;45751;-77
2023/04/10 02:37:46;;;;;;;;;11.67;11.67;;;;;13.09;92.48;101378.66;5067487;28;47420;-78
2023/04/10 02:40:11;;;;;;;;;14.00;12.33;;;;;13.05;92.25;101365.81;5086057;28;45338;-77
2023/04/10 02:42:36;;;;;;;;;14.00;12.00;;;;;13.03;92.64;101367.81;5085658;28;48963;-77
2023/04/10 02:45:02;;;;;;;;;13.00;12.00;;;;;13.02;92.29;101363.50;5085598;28;45544;-77
2023/04/10 02:47:27;;;;;;;;;12.00;11.00;;;;;13.03;91.98;101357.16;5085895;28;45241;-74
2023/04/10 02:49:53;;;;;;;;;11.33;11.33;;;;;13.03;92.70;101352.66;5085963;28;45260;-77
2023/04/10 02:52:18;;;;;;;;;12.33;11.33;;;;;13.08;92.65;101360.94;5067533;28;45264;-77
2023/04/10 02:54:44;;;;;;;;;13.00;12.00;;;;;13.03;93.28;101350.00;5085719;28;45414;-77
2023/04/10 02:57:09;;;;;;;;;15.67;14.33;;;;;13.09;92.54;101353.78;5085699;28;45507;-77
2023/04/10 02:59:35;;;;;;;;;11.67;11.67;;;;;13.03;93.45;101343.81;5085603;28;45290;-77
2023/04/10 03:02:00;;;;;;;;;15.33;14.33;;;;;13.04;92.56;101346.31;5063301;28;45275;-77
2023/04/10 03:04:26;;;;;;;;;11.67;11.00;;;;;13.04;92.79;101343.63;5082540;28;45494;-77
2023/04/10 03:06:51;;;;;;;;;14.33;12.67;;;;;13.12;92.72;101346.28;5063870;28;47963;-78
2023/04/10 03:09:16;;;;;;;;;14.33;14.00;;;;;13.19;92.84;101351.72;5082710;28;45239;-78
2023/04/10 03:11:42;;;;;;;;;13.67;13.00;;;;;12.90;94.00;101337.19;5082519;28;45146;-77
2023/04/10 03:14:08;;;;;;;;;13.67;13.67;;;;;12.93;94.15;101347.53;5082729;28;45200;-77
2023/04/10 03:16:34;;;;;;;;;16.00;14.00;;;;;12.83;94.47;101344.25;5082126;28;45397;-77
2023/04/10 03:19:00;;;;;;;;;11.00;11.00;;;;;12.82;94.75;101343.44;5082048;28;45324;-77
2023/04/10 03:21:26;;;;;;;;;12.67;12.67;;;;;12.73;95.01;101329.31;5081913;28;45423;-77
2023/04/10 03:23:51;;;;;;;;;14.00;12.00;;;;;12.75;95.42;101329.94;5082076;28;45491;-77
2023/04/10 03:26:17;;;;;;;;;10.33;10.33;;;;;12.71;94.99;101325.13;5082228;28;46158;-77
2023/04/10 03:28:42;;;;;;;;;12.67;12.67;;;;;12.70;95.30;101335.00;5081664;28;45480;-77
2023/04/10 03:31:08;;;;;;;;;11.00;11.00;;;;;12.97;94.56;101334.69;5081755;28;50093;-77
2023/04/10 03:33:33;;;;;;;;;16.33;15.00;;;;;12.67;95.35;101324.66;5082064;27;45246;-77
2023/04/10 03:35:59;;;;;;;;;16.67;14.67;;;;;12.59;95.58;101324.69;5079988;28;51245;-77
2023/04/10 03:38:24;;;;;;;;;14.00;14.00;;;;;12.61;95.23;101330.69;5081949;27;45256;-77
2023/04/10 03:40:49;;;;;;;;;15.67;14.00;;;;;12.60;95.60;101337.03;5081972;27;45591;-78
2023/04/10 03:43:15;;;;;;;;;14.00;14.00;;;;;12.53;95.70;101336.03;5081607;28;45413;-78
2023/04/10 03:45:40;;;;;;;;;16.67;16.67;;;;;12.52;95.76;101339.72;5081596;27;46382;-77
2023/04/10 03:48:05;;;;;;;;;14.00;14.00;;;;;12.48;96.42;101333.91;5082294;27;45171;-77
2023/04/10 03:50:30;;;;;;;;;16.33;15.33;;;;;12.38;95.94;101318.09;5081520;27;45425;-77
2023/04/10 03:52:56;;;;;;;;;15.33;14.33;;;;;12.37;96.64;101330.59;5080252;28;45834;-77
2023/04/10 03:55:21;;;;;;;;;13.67;12.00;;;;;12.32;96.96;101327.63;5081584;28;46122;-77
2023/04/10 03:57:47;;;;;;;;;19.67;19.67;;;;;12.28;97.13;101333.47;5081358;27;50872;-77
2023/04/10 04:00:16;;;;;;;;;17.33;15.67;;;;;12.14;97.50;101322.50;5081311;27;45439;-77
2023/04/10 04:02:42;;;;;;;;;15.00;14.00;;;;;12.04;97.34;101296.03;5081387;27;45508;-77
2023/04/10 04:05:08;;;;;;;;;13.00;13.00;;;;;12.02;97.87;101302.50;5079710;28;47204;-77
2023/04/10 04:07:33;;;;;;;;;16.33;15.33;;;;;12.05;97.84;101297.69;5079928;28;45503;-77
2023/04/10 04:10:02;;;;;;;;;15.00;14.33;;;;;11.98;97.99;101291.38;5081541;27;45430;-77
2023/04/10 04:12:27;;;;;;;;;18.00;16.67;;;;;11.92;98.34;101292.91;5081360;27;45315;-77
2023/04/10 04:14:52;;;;;;;;;17.00;16.67;;;;;11.84;98.34;101295.56;5081182;28;46028;-77
2023/04/10 04:17:18;;;;;;;;;15.67;15.67;;;;;11.81;98.62;101285.25;5081481;27;45333;-77
2023/04/10 04:19:43;;;;;;;;;13.00;13.00;;;;;11.80;99.18;101299.56;5081384;27;45318;-74
2023/04/10 04:22:12;;;;;;;;;16.67;15.67;;;;;11.80;98.75;101305.72;5081063;27;45445;-77
2023/04/10 04:24:37;;;;;;;;;17.67;16.33;;;;;11.77;98.65;101298.09;5075289;28;45700;-77
2023/04/10 04:27:02;;;;;;;;;18.67;15.67;;;;;11.82;98.63;101324.22;5060639;28;45268;-77
2023/04/10 04:29:28;;;;;;;;;15.33;15.33;;;;;11.72;99.07;101306.56;5070493;28;45448;-77
2023/04/10 04:31:53;;;;;;;;;18.33;16.67;;;;;11.75;99.11;101318.72;5072678;28;46018;-77
2023/04/10 04:34:19;;;;;;;;;15.67;15.00;;;;;11.75;99.22;101324.03;5060836;28;46416;-77
2023/04/10 04:36:44;;;;;;;;;16.67;16.67;;;;;11.81;99.11;101336.69;5060395;28;45212;-77
2023/04/10 04:39:09;;;;;;;;;16.67;15.00;;;;;11.77;98.84;101323.88;5060791;28;45161;-77
2023/04/10 04:41:35;;;;;;;;;16.67;14.33;;;;;11.73;99.68;101328.69;5042529;28;47152;-77
2023/04/10 04:44:01;;;;;;;;;17.00;14.67;;;;;11.72;100.00;101319.03;5042324;28;47293;-77
2023/04/10 04:46:27;;;;;;;;;13.00;13.00;;;;;11.71;100.00;101328.84;5060583;28;45232;-77
2023/04/10 04:48:52;;;;;;;;;16.00;15.00;;;;;11.69;100.00;101327.38;5060381;28;45549;-77
2023/04/10 04:51:17;;;;;;;;;15.00;14.33;;;;;11.64;100.00;101317.22;5060084;28;52076;-74
2023/04/10 04:53:43;;;;;;;;;16.33;15.67;;;;;11.60;100.00;101314.06;5059965;28;52966;-77
2023/04/10 04:56:08;;;;;;;;;18.00;17.67;;;;;11.58;100.00;101308.06;5060408;28;45429;-77
2023/04/10 04:58:33;;;;;;;;;18.33;17.67;;;;;11.52;100.00;101307.91;5060320;28;45249;-77
2023/04/10 05:00:59;;;;;;;;;19.33;16.33;;;;;11.60;100.00;101315.88;5060257;28;45308;-77
2023/04/10 05:03:27;;;;;;;;;14.33;14.33;;;;;11.61;100.00;101321.03;5060223;28;45304;-77
2023/04/10 05:05:53;;;;;;;;;15.67;14.00;;;;;11.53;100.00;101314.91;5060366;28;45327;-74
2023/04/10 05:08:18;;;;;;;;;17.33;16.00;;;;;11.63;100.00;101323.53;5060189;28;45277;-77
2023/04/10 05:10:43;;;;;;;;;12.00;12.00;;;;;11.57;100.00;101324.19;5041993;28;48730;-77
2023/04/10 05:13:09;;;;;;;;;15.67;15.33;;;;;11.59;100.00;101315.03;5040688;28;55564;-77
2023/04/10 05:15:34;;;;;;;;;8.00;6.33;;;;;11.60;100.00;101323.88;5060076;28;45204;-77
2023/04/10 05:18:00;;;;;;;;;11.33;11.33;;;;;11.70;100.00;101321.06;5060212;28;45296;-77
2023/04/10 05:20:26;;;;;;;;;16.33;15.33;;;;;11.72;100.00;101321.69;5059802;28;47564;-77
2023/04/10 05:22:51;;;;;;;;;15.67;15.67;;;;;11.72;100.00;101330.53;5060117;28;45307;-77
2023/04/10 05:25:17;;;;;;;;;17.00;17.00;;;;;11.75;100.00;101321.38;5059227;28;45145;-78
2023/04/10 05:27:43;;;;;;;;;17.67;13.33;;;;;11.76;100.00;101320.38;5059743;28;45348;-77
2023/04/10 05:30:08;;;;;;;;;14.00;13.00;;;;;11.79;100.00;101328.03;5074785;28;52733;-77
2023/04/10 05:32:34;;;;;;;;;13.00;13.00;;;;;11.78;100.00;101321.03;5080238;27;46025;-77
2023/04/10 05:34:59;;;;;;;;;12.00;12.00;;;;;11.71;100.00;101312.88;5078849;28;45331;-77
2023/04/10 05:37:24;;;;;;;;;14.00;14.00;;;;;11.84;100.00;101317.72;5078392;28;45375;-77
2023/04/10 05:39:50;;;;;;;;;19.00;15.67;;;;;11.87;100.00;101332.50;5078514;28;47211;-78
2023/04/10 05:42:15;;;;;;;;;15.33;15.33;;;;;11.93;100.00;101323.84;5077942;28;60733;-78
2023/04/10 05:44:40;;;;;;;;;15.33;15.33;;;;;12.00;100.00;101337.31;5078420;28;45355;-78
2023/04/10 05:47:06;;;;;;;;;15.00;15.00;;;;;12.04;100.00;101340.47;5079921;28;45297;-77
2023/04/10 05:49:32;;;;;;;;;17.33;15.00;;;;;12.18;100.00;101353.13;5079510;27;45335;-77
2023/04/10 05:51:57;;;;;;;;;16.67;14.00;;;;;12.22;99.51;101351.78;5079601;27;46079;-77
2023/04/10 05:54:23;;;;;;;;;13.00;13.00;;;;;12.35;99.02;101359.28;5079665;28;45329;-77
2023/04/10 05:56:48;;;;;;;;;16.67;16.00;;;;;12.46;98.53;101357.25;5079894;27;45470;-77
2023/04/10 05:59:13;;;;;;;;;14.00;14.00;;;;;12.50;97.78;101342.56;5078138;28;46092;-76
2023/04/10 06:01:39;;;;;;;;;16.33;14.67;;;;;12.57;98.61;101338.19;5079577;27;46208;-77
2023/04/10 06:04:05;;;;;;;;;13.00;12.67;;;;;12.70;98.36;101342.16;5080551;27;45283;-77
2023/04/10 06:06:32;;;;;;;;;17.33;16.00;;;;;12.90;97.77;101350.53;5079389;27;45509;-77
2023/04/10 06:08:57;;;;;;;;;13.00;13.00;;;;;12.94;97.54;101346.53;5071096;28;47211;-78
2023/04/10 06:11:22;;;;;;;;;13.33;13.33;;;;;13.05;97.57;101344.47;5076316;28;45303;-78
2023/04/10 06:13:48;;;;;;;;;15.67;15.00;;;;;13.05;97.48;101333.81;5063923;28;55165;-78
2023/04/10 06:16:14;;;;;;;;;13.67;13.67;;;;;13.17;97.47;101342.25;5082161;28;45556;-77
2023/04/10 06:18:39;;;;;;;;;15.00;15.00;;;;;13.17;96.74;101353.72;5064007;28;46111;-78
2023/04/10 06:21:05;;;;;;;;;13.67;13.67;;;;;13.17;96.85;101353.72;5085240;28;46018;-77
2023/04/10 06:23:30;;;;;;;;;14.00;14.00;;;;;13.08;97.72;101344.94;5080358;28;45305;-77
2023/04/10 06:25:56;;;;;;;;;14.67;14.67;;;;;13.24;97.42;101338.69;5079255;28;45327;-78
2023/04/10 06:28:21;;;;;;;;;14.33;14.33;;;;;13.24;96.95;101349.38;5078763;28;45323;-77
2023/04/10 06:30:46;;;;;;;;;16.33;16.33;;;;;13.34;95.86;101346.44;5061210;28;48422;-79
2023/04/10 06:33:12;;;;;;;;;13.67;12.33;;;;;13.43;95.82;101343.72;5061448;28;45368;-77
2023/04/10 06:35:37;;;;;;;;;18.00;16.00;;;;;13.50;94.35;101342.03;5058720;28;53926;-77
2023/04/10 06:38:03;;;;;;;;;17.00;16.00;;;;;13.60;94.55;101349.78;5063737;28;45311;-77
2023/04/10 06:40:29;;;;;;;;;14.00;14.00;;;;;13.58;94.12;101339.28;5064588;28;45317;-77
2023/04/10 06:42:55;;;;;;;;;17.67;15.33;;;;;13.67;94.86;101347.22;5060900;28;45979;-75
2023/04/10 06:45:20;;;;;;;;;18.00;16.67;;;;;13.78;94.27;101343.28;5041676;28;45332;-77
2023/04/10 06:47:46;;;;;;;;;14.67;14.00;;;;;13.74;94.29;101348.19;5040716;28;46987;-78
2023/04/10 06:50:11;;;;;;;;;13.67;13.33;;;;;13.62;94.03;101334.44;5040634;28;47037;-78
2023/04/10 06:52:36;;;;;;;;;15.00;15.00;;;;;13.81;93.50;101341.09;5043341;28;45526;-77
2023/04/10 06:55:02;;;;;;;;;16.67;15.67;;;;;14.07;93.75;101341.69;5042836;28;45627;-78
2023/04/10 06:57:27;;;;;;;;;13.67;12.67;;;;;14.12;93.50;101325.94;5042158;28;45343;-78
2023/04/10 06:59:53;;;;;;;;;13.00;12.00;;;;;14.36;92.75;101342.72;5040588;28;47988;-76
2023/04/10 07:02:18;;;;;;;;;12.67;12.67;;;;;14.42;92.40;101325.94;5042783;28;45317;-79
2023/04/10 07:04:44;;;;;;;;;15.00;15.00;;;;;14.52;92.39;101337.16;5044086;28;45406;-78
2023/04/10 07:07:11;;;;;;;;;17.00;17.00;;;;;14.56;91.34;101329.63;5042621;28;45371;-75
2023/04/10 07:09:36;;;;;;;;;13.67;13.33;;;;;14.60;90.63;101327.38;5045024;28;45354;-74
2023/04/10 07:12:02;;;;;;;;;19.67;16.00;;;;;14.60;90.41;101322.88;5062187;28;45689;-77
2023/04/10 07:14:28;;;;;;;;;14.00;14.00;;;;;14.72;90.03;101330.41;5044768;28;45323;-77
2023/04/10 07:16:53;;;;;;;;;15.00;14.33;;;;;14.68;90.56;101305.03;5041260;28;45268;-75
2023/04/10 07:19:19;;;;;;;;;14.33;14.00;;;;;14.76;90.23;101313.78;5042139;28;45321;-78
2023/04/10 07:21:48;;;;;;;;;17.00;16.00;;;;;14.84;90.02;101310.22;5044067;28;45276;-78
2023/04/10 07:24:14;;;;;;;;;17.33;17.00;;;;;14.94;90.14;101309.91;5047417;28;45781;-78
2023/04/10 07:26:39;;;;;;;;;11.00;11.00;;;;;15.05;90.11;101316.59;5059845;28;45359;-78
2023/04/10 07:29:05;;;;;;;;;15.67;14.33;;;;;15.13;89.96;101316.50;5047317;28;52493;-77
2023/04/10 07:31:30;;;;;;;;;12.67;12.67;;;;;15.23;90.18;101320.69;5059932;28;46019;-78
2023/04/10 07:33:55;;;;;;;;;14.00;12.67;;;;;15.29;90.72;101306.53;5061232;28;45439;-78
2023/04/10 07:36:21;;;;;;;;;14.00;12.33;;;;;15.38;89.65;101310.75;5076647;28;46363;-78
2023/04/10 07:38:46;;;;;;;;;14.00;13.00;;;;;15.46;89.54;101293.72;5060112;28;47079;-77
2023/04/10 07:41:13;;;;;;;;;13.33;13.33;;;;;15.58;88.86;101293.19;5041491;28;45284;-77
2023/04/10 07:43:38;;;;;;;;;11.67;11.67;;;;;15.68;88.04;101301.69;5041210;28;45189;-78
2023/04/10 07:46:04;;;;;;;;;12.00;11.33;;;;;15.73;87.60;101285.88;5039696;28;46350;-78
2023/04/10 07:48:29;;;;;;;;;13.00;13.00;;;;;15.84;87.99;101305.97;5040857;28;45255;-78
2023/04/10 07:50:54;;;;;;;;;12.00;12.00;;;;;15.87;88.58;101292.13;5052012;28;45294;-78
2023/04/10 07:53:20;;;;;;;;;11.00;10.33;;;;;15.94;87.96;101302.91;5050996;28;45300;-78
2023/04/10 07:55:48;;;;;;;;;14.33;13.33;;;;;16.09;88.21;101305.53;5051737;28;45898;-78
2023/04/10 07:58:14;;;;;;;;;14.00;12.00;;;;;16.19;87.00;101302.47;5052966;28;45454;-78
2023/04/10 08:00:40;;;;;;;;;14.33;13.67;;;;;16.27;87.52;101296.97;5052363;28;45385;-78
2023/04/10 08:03:06;;;;;;;;;12.00;12.00;;;;;16.27;87.74;101277.34;5050519;28;45811;-78
2023/04/10 08:05:31;;;;;;;;;14.00;14.00;;;;;16.53;86.69;101297.28;5051251;28;46388;-78
2023/04/10 08:07:58;;;;;;;;;13.33;13.33;;;;;16.56;86.43;101298.72;5049897;28;45443;-78
2023/04/10 08:10:23;;;;;;;;;10.33;10.00;;;;;16.72;86.90;101305.56;5051750;28;45252;-78
2023/04/10 08:12:48;;;;;;;;;14.33;12.67;;;;;16.78;86.03;101299.41;5051148;28;45199;-80
2023/04/10 08:15:14;;;;;;;;;13.00;11.00;;;;;16.82;86.99;101286.41;5065986;28;51723;-78
2023/04/10 08:17:39;;;;;;;;;11.67;11.67;;;;;16.98;86.59;101287.91;5042011;28;46215;-79
2023/04/10 08:20:05;;;;;;;;;10.00;10.00;;;;;17.16;85.71;101287.34;5049192;28;50138;-78
2023/04/10 08:22:30;;;;;;;;;11.67;11.67;;;;;17.19;84.47;101276.19;5062422;28;45207;-79
2023/04/10 08:24:56;;;;;;;;;10.00;10.00;;;;;17.33;83.52;101258.19;5054283;28;45708;-78
2023/04/10 08:27:21;;;;;;;;;10.00;10.00;;;;;17.52;83.61;101272.69;5041321;28;46402;-78
2023/04/10 08:29:46;;;;;;;;;11.67;11.67;;;;;17.63;82.79;101281.16;5058940;28;47301;-78
2023/04/10 08:32:12;;;;;;;;;10.33;10.00;;;;;17.71;82.23;101264.78;5055934;28;46805;-79
2023/04/10 08:34:37;;;;;;;;;10.67;10.67;;;;;17.84;82.72;101263.13;5058612;28;53725;-78
2023/04/10 08:37:08;;;;;;;;;9.00;9.00;;;;;18.01;82.34;101260.78;5056547;28;47278;-77
2023/04/10 08:39:35;;;;;;;;;12.67;10.00;;;;;18.09;80.90;101251.66;5061355;28;45535;-77
2023/04/10 08:42:00;;;;;;;;;14.00;14.00;;;;;18.14;80.88;101259.97;5059183;28;45451;-78
2023/04/10 08:44:26;;;;;;;;;13.00;13.00;;;;;18.29;81.17;101262.38;5058168;28;46271;-78
2023/04/10 08:46:51;;;;;;;;;11.33;11.00;;;;;18.41;77.42;101271.44;5061522;28;46048;-78
2023/04/10 08:49:30;;;;;;;;;13.00;10.00;;;;;18.55;76.96;101277.59;5046965;28;45435;-79
2023/04/10 08:51:57;;;;;;;;;9.67;9.00;;;;;18.70;75.84;101276.47;5049641;28;45322;-78
2023/04/10 08:54:32;;;;;;;;;9.67;9.67;;;;;18.63;75.12;101283.75;5047794;28;45450;-78
2023/04/10 08:57:00;;;;;;;;;11.33;11.33;;;;;18.68;76.36;101279.38;5056258;28;46516;-78
2023/04/10 08:59:28;;;;;;;;;8.00;8.00;;;;;18.79;76.54;101277.88;5050863;28;45557;-78
2023/04/10 09:01:55;;;;;;;;;12.00;11.33;;;;;18.86;74.37;101267.03;5050684;28;45385;-78
2023/04/10 09:04:23;;;;;;;;;9.00;9.00;;;;;18.82;73.04;101263.13;5041254;28;45427;-77
2023/04/10 09:06:48;;;;;;;;;9.67;9.67;;;;;18.89;72.52;101272.00;5039013;28;46488;-78
2023/04/10 09:09:13;;;;;;;;;10.00;10.00;;;;;18.89;70.63;101274.69;5040710;28;45331;-76
2023/04/10 09:11:51;;;;;;;;;11.67;11.00;;;;;18.97;71.48;101270.91;5041847;28;45331;-78
2023/04/10 09:14:24;;;;;;;;;13.00;12.00;;;;;19.03;71.62;101261.97;5046811;28;47117;-77
2023/04/10 09:16:51;;;;;;;;;10.00;10.00;;;;;19.20;71.32;101282.16;5049585;28;45477;-76
2023/04/10 09:19:32;;;;;;;;;13.33;13.33;;;;;19.26;71.33;101275.91;5046270;28;45382;-78
2023/04/10 09:21:58;;;;;;;;;12.00;12.00;;;;;19.23;69.50;101277.19;5043923;28;45372;-77
2023/04/10 09:24:25;;;;;;;;;13.00;12.67;;;;;19.14;71.37;101273.94;5049681;28;46359;-77
2023/04/10 09:26:50;;;;;;;;;13.67;12.33;;;;;19.16;71.30;101271.84;5047807;28;46445;-77
2023/04/10 09:29:15;;;;;;;;;10.33;10.33;;;;;19.28;71.25;101280.03;5055317;28;45676;-77
2023/04/10 09:31:42;;;;;;;;;14.00;14.00;;;;;19.35;69.97;101269.22;5048493;28;45406;-77
2023/04/10 09:34:20;;;;;;;;;13.00;13.00;;;;;19.40;70.27;101271.25;5046824;28;45335;-77
2023/04/10 09:36:57;;;;;;;;;13.00;12.33;;;;;19.43;71.42;101277.00;5063703;28;46219;-77
2023/04/10 09:39:33;;;;;;;;;12.33;12.33;;;;;19.70;70.66;101259.78;5075810;27;45413;-78
2023/04/10 09:41:58;;;;;;;;;12.67;12.67;;;;;19.73;71.27;101242.31;5079563;28;45293;-77
2023/04/10 09:44:30;;;;;;;;;11.33;11.33;;;;;19.80;71.18;101245.75;5079044;28;45291;-77
2023/04/10 09:46:55;;;;;;;;;11.00;10.00;;;;;19.76;69.75;101234.63;5061096;28;48186;-76
2023/04/10 09:49:21;;;;;;;;;12.00;12.00;;;;;19.93;69.38;101237.53;5059025;28;45450;-76
2023/04/10 09:51:48;;;;;;;;;13.00;12.00;;;;;20.13;71.01;101244.59;5059818;28;45609;-77
2023/04/10 09:54:14;;;;;;;;;13.00;11.00;;;;;20.20;70.17;101239.09;5079661;28;45403;-76
2023/04/10 09:56:40;;;;;;;;;9.33;9.33;;;;;20.23;70.81;101232.44;5060719;28;48146;-78
2023/04/10 09:59:06;;;;;;;;;11.67;11.67;;;;;20.25;71.16;101228.47;5075978;28;45356;-79
2023/04/10 10:01:33;;;;;;;;;11.67;11.67;;;;;20.34;71.07;101233.53;5043692;28;45305;-76
2023/04/10 10:04:03;;;;;;;;;11.50;11.50;;;;;20.34;70.99;101228.97;5061562;28;45373;-77
2023/04/10 10:06:32;;;;;;;;;12.00;12.00;;;;;20.12;71.21;101213.28;5060919;28;46130;-77
2023/04/10 10:09:03;;;;;;;;;13.00;13.00;;;;;20.12;71.49;101215.97;5069820;28;45224;-77
2023/04/10 10:11:33;;;;;;;;;13.67;13.67;;;;;20.07;72.70;101221.22;5074157;28;45299;-77
2023/04/10 10:14:11;;;;;;;;;16.33;15.33;;;;;20.04;74.72;101219.81;5053772;28;46198;-76
2023/04/10 10:16:46;;;;;;;;;15.67;15.67;;;;;19.92;76.23;101226.97;5072840;28;45287;-77
2023/04/10 10:19:19;;;;;;;;;19.00;18.67;;;;;19.88;78.04;101231.16;5076116;28;45371;-77
2023/04/10 10:21:45;;;;;;;;;15.67;15.67;;;;;19.81;78.17;101215.88;5059788;28;45437;-75
2023/04/10 10:24:12;;;;;;;;;14.00;14.00;;;;;19.88;77.30;101209.59;5056911;28;46226;-77
2023/04/10 10:26:42;;;;;;;;;14.00;13.33;;;;;19.90;76.01;101207.47;5080330;28;46232;-78
2023/04/10 10:29:12;;;;;;;;;17.33;15.00;;;;;19.99;76.43;101216.91;5064683;28;45688;-77
2023/04/10 10:31:38;;;;;;;;;17.00;17.00;;;;;20.05;75.94;101213.34;5092052;27;45322;-78
2023/04/10 10:34:08;;;;;;;;;12.67;12.67;;;;;20.06;74.90;101200.69;5086747;27;45372;-77
2023/04/10 10:36:34;;;;;;;;;11.33;11.00;;;;;20.15;75.28;101187.72;5093299;28;48011;-74
2023/04/10 10:39:43;;;;;;;;;14.00;13.00;;;;;20.25;74.29;101192.53;5094167;27;44759;-77
2023/04/10 10:42:33;;;;;;;;;14.67;13.00;;;;;20.27;74.43;101185.88;5095895;28;45223;-77
2023/04/10 10:45:28;;;;;;;;;11.00;11.00;;;;;20.30;73.76;101180.00;5091375;28;46194;-77
2023/04/10 10:47:53;;;;;;;;;8.67;8.67;;;;;20.31;73.20;101170.88;5090553;27;45389;-76
2023/04/10 10:50:20;;;;;;;;;10.67;10.67;;;;;20.40;72.23;101179.47;5089423;28;45363;-78
2023/04/10 10:52:52;;;;;;;;;11.00;10.00;;;;;20.38;72.85;101178.06;5059872;28;45508;-74
2023/04/10 10:55:31;;;;;;;;;12.00;12.00;;;;;20.44;72.09;101166.31;5071722;28;46015;-77
2023/04/10 10:57:59;;;;;;;;;13.00;13.00;;;;;20.48;69.81;101167.53;5066151;28;45992;-77
2023/04/10 11:00:50;;;;;;;;;11.33;11.33;;;;;20.51;70.35;101168.94;5044028;28;46200;-76
2023/04/10 11:03:15;;;;;;;;;11.00;11.00;;;;;20.52;69.74;101170.56;5077946;28;45841;-76
2023/04/10 11:06:05;;;;;;;;;10.67;10.67;;;;;20.56;70.42;101164.47;5081533;28;45283;-76
2023/04/10 11:08:39;;;;;;;;;8.00;8.00;;;;;20.60;70.27;101156.75;5070061;28;46182;-76
2023/04/10 11:11:06;;;;;;;;;10.67;10.00;;;;;20.61;68.51;101158.41;5063403;28;45795;-76